sensor_id;sensor_type;location;lat;lon;timestamp;P1;durP1;ratioP1;P2;durP2;ratioP2
69253;SDS011;56364;41.816;12.448;2022-12-07T00:01:34;20.95;;;7.53;;
69253;SDS011;56364;41.816;12.448;2022-12-07T00:04:01;15.88;;;6.65;;
69253;SDS011;56364;41.816;12.448;2022-12-07T00:06:40;17.38;;;6.88;;
69253;SDS011;56364;41.816;12.448;2022-12-07T00:09:07;15.80;;;6.93;;
69253;SDS011;56364;41.816;12.448;2022-12-07T00:11:35;13.57;;;6.60;;
69253;SDS011;56364;41.816;12.448;2022-12-07T00:14:02;16.50;;;6.55;;
69253;SDS011;56364;41.816;12.448;2022-12-07T00:16:29;16.45;;;6.80;;
69253;SDS011;56364;41.816;12.448;2022-12-07T00:18:56;19.73;;;7.15;;
69253;SDS011;56364;41.816;12.448;2022-12-07T00:21:23;16.83;;;7.18;;
69253;SDS011;56364;41.816;12.448;2022-12-07T00:23:50;14.15;;;7.32;;
69253;SDS011;56364;41.816;12.448;2022-12-07T00:28:51;15.35;;;6.53;;
69253;SDS011;56364;41.816;12.448;2022-12-07T00:31:18;16.08;;;6.80;;
69253;SDS011;56364;41.816;12.448;2022-12-07T00:33:45;17.00;;;7.00;;
69253;SDS011;56364;41.816;12.448;2022-12-07T00:36:12;18.13;;;6.80;;
69253;SDS011;56364;41.816;12.448;2022-12-07T00:38:39;14.32;;;6.38;;
69253;SDS011;56364;41.816;12.448;2022-12-07T00:41:06;15.95;;;7.28;;
69253;SDS011;56364;41.816;12.448;2022-12-07T00:43:32;18.33;;;6.85;;
69253;SDS011;56364;41.816;12.448;2022-12-07T00:45:59;14.93;;;6.40;;
69253;SDS011;56364;41.816;12.448;2022-12-07T00:48:25;16.58;;;6.68;;
69253;SDS011;56364;41.816;12.448;2022-12-07T00:50:51;16.15;;;7.05;;
69253;SDS011;56364;41.816;12.448;2022-12-07T00:53:17;19.05;;;7.25;;
69253;SDS011;56364;41.816;12.448;2022-12-07T00:58:09;14.35;;;6.20;;
69253;SDS011;56364;41.816;12.448;2022-12-07T01:03:01;16.23;;;6.50;;
69253;SDS011;56364;41.816;12.448;2022-12-07T01:05:27;20.25;;;7.80;;
69253;SDS011;56364;41.816;12.448;2022-12-07T01:07:53;19.70;;;7.25;;
69253;SDS011;56364;41.816;12.448;2022-12-07T01:10:19;14.75;;;6.78;;
69253;SDS011;56364;41.816;12.448;2022-12-07T01:12:45;17.85;;;6.85;;
69253;SDS011;56364;41.816;12.448;2022-12-07T01:17:37;17.30;;;7.15;;
69253;SDS011;56364;41.816;12.448;2022-12-07T01:22:29;14.52;;;6.38;;
69253;SDS011;56364;41.816;12.448;2022-12-07T01:24:55;15.85;;;7.05;;
69253;SDS011;56364;41.816;12.448;2022-12-07T01:27:21;17.90;;;7.18;;
69253;SDS011;56364;41.816;12.448;2022-12-07T01:29:47;16.63;;;6.60;;
69253;SDS011;56364;41.816;12.448;2022-12-07T01:32:13;17.77;;;7.25;;
69253;SDS011;56364;41.816;12.448;2022-12-07T01:34:39;11.77;;;6.28;;
69253;SDS011;56364;41.816;12.448;2022-12-07T01:39:31;16.75;;;7.10;;
69253;SDS011;56364;41.816;12.448;2022-12-07T01:44:24;17.52;;;6.75;;
69253;SDS011;56364;41.816;12.448;2022-12-07T01:46:57;14.82;;;6.75;;
69253;SDS011;56364;41.816;12.448;2022-12-07T01:54:37;19.75;;;7.20;;
69253;SDS011;56364;41.816;12.448;2022-12-07T01:57:03;15.65;;;6.28;;
69253;SDS011;56364;41.816;12.448;2022-12-07T01:59:31;15.38;;;6.38;;
69253;SDS011;56364;41.816;12.448;2022-12-07T02:01:57;11.05;;;6.10;;
69253;SDS011;56364;41.816;12.448;2022-12-07T02:04:24;15.07;;;6.18;;
69253;SDS011;56364;41.816;12.448;2022-12-07T02:06:50;18.15;;;7.10;;
69253;SDS011;56364;41.816;12.448;2022-12-07T02:09:17;18.70;;;6.65;;
69253;SDS011;56364;41.816;12.448;2022-12-07T02:11:43;16.83;;;6.68;;
69253;SDS011;56364;41.816;12.448;2022-12-07T02:14:09;15.00;;;6.18;;
69253;SDS011;56364;41.816;12.448;2022-12-07T02:16:41;17.30;;;6.70;;
69253;SDS011;56364;41.816;12.448;2022-12-07T02:21:45;17.52;;;7.38;;
69253;SDS011;56364;41.816;12.448;2022-12-07T02:24:30;13.68;;;6.10;;
69253;SDS011;56364;41.816;12.448;2022-12-07T02:28:04;14.10;;;6.45;;
69253;SDS011;56364;41.816;12.448;2022-12-07T02:29:58;16.95;;;6.25;;
69253;SDS011;56364;41.816;12.448;2022-12-07T02:32:28;15.70;;;6.72;;
69253;SDS011;56364;41.816;12.448;2022-12-07T02:35:10;15.63;;;6.47;;
69253;SDS011;56364;41.816;12.448;2022-12-07T02:37:58;17.65;;;6.70;;
69253;SDS011;56364;41.816;12.448;2022-12-07T02:40:28;18.00;;;7.15;;
69253;SDS011;56364;41.816;12.448;2022-12-07T02:42:58;14.77;;;6.55;;
69253;SDS011;56364;41.816;12.448;2022-12-07T02:45:25;11.52;;;5.88;;
69253;SDS011;56364;41.816;12.448;2022-12-07T02:47:53;13.30;;;5.88;;
69253;SDS011;56364;41.816;12.448;2022-12-07T02:50:21;13.75;;;7.38;;
69253;SDS011;56364;41.816;12.448;2022-12-07T02:52:47;18.98;;;6.40;;
69253;SDS011;56364;41.816;12.448;2022-12-07T02:55:14;13.13;;;6.38;;
69253;SDS011;56364;41.816;12.448;2022-12-07T03:00:17;20.23;;;6.75;;
69253;SDS011;56364;41.816;12.448;2022-12-07T03:10:47;15.57;;;6.82;;
69253;SDS011;56364;41.816;12.448;2022-12-07T03:18:07;12.18;;;5.63;;
69253;SDS011;56364;41.816;12.448;2022-12-07T03:20:35;12.40;;;5.97;;
69253;SDS011;56364;41.816;12.448;2022-12-07T03:23:03;14.48;;;5.68;;
69253;SDS011;56364;41.816;12.448;2022-12-07T03:25:30;12.65;;;5.65;;
69253;SDS011;56364;41.816;12.448;2022-12-07T03:28:01;14.98;;;6.18;;
69253;SDS011;56364;41.816;12.448;2022-12-07T03:30:50;10.63;;;5.38;;
69253;SDS011;56364;41.816;12.448;2022-12-07T03:33:18;13.75;;;6.05;;
69253;SDS011;56364;41.816;12.448;2022-12-07T03:35:51;13.40;;;6.15;;
69253;SDS011;56364;41.816;12.448;2022-12-07T03:40:52;13.57;;;5.35;;
69253;SDS011;56364;41.816;12.448;2022-12-07T03:43:20;11.70;;;5.68;;
69253;SDS011;56364;41.816;12.448;2022-12-07T03:56:34;16.45;;;5.50;;
69253;SDS011;56364;41.816;12.448;2022-12-07T03:59:00;14.55;;;5.22;;
69253;SDS011;56364;41.816;12.448;2022-12-07T04:03:52;8.05;;;4.90;;
69253;SDS011;56364;41.816;12.448;2022-12-07T04:06:18;14.85;;;5.63;;
69253;SDS011;56364;41.816;12.448;2022-12-07T04:08:44;14.13;;;5.78;;
69253;SDS011;56364;41.816;12.448;2022-12-07T04:11:10;11.60;;;4.90;;
69253;SDS011;56364;41.816;12.448;2022-12-07T04:13:36;13.43;;;4.78;;
69253;SDS011;56364;41.816;12.448;2022-12-07T04:16:22;12.02;;;5.68;;
69253;SDS011;56364;41.816;12.448;2022-12-07T04:21:14;11.60;;;5.28;;
69253;SDS011;56364;41.816;12.448;2022-12-07T04:23:40;14.45;;;5.30;;
69253;SDS011;56364;41.816;12.448;2022-12-07T04:26:06;12.70;;;5.30;;
69253;SDS011;56364;41.816;12.448;2022-12-07T04:28:32;12.38;;;4.97;;
69253;SDS011;56364;41.816;12.448;2022-12-07T04:30:58;9.30;;;4.80;;
69253;SDS011;56364;41.816;12.448;2022-12-07T04:33:24;13.10;;;5.40;;
69253;SDS011;56364;41.816;12.448;2022-12-07T04:38:16;15.77;;;5.28;;
69253;SDS011;56364;41.816;12.448;2022-12-07T04:40:42;10.10;;;4.88;;
69253;SDS011;56364;41.816;12.448;2022-12-07T04:43:08;11.73;;;4.75;;
69253;SDS011;56364;41.816;12.448;2022-12-07T04:45:34;10.85;;;4.45;;
69253;SDS011;56364;41.816;12.448;2022-12-07T04:48:00;10.50;;;5.45;;
69253;SDS011;56364;41.816;12.448;2022-12-07T04:52:52;10.07;;;4.32;;
69253;SDS011;56364;41.816;12.448;2022-12-07T04:55:18;12.30;;;5.00;;
69253;SDS011;56364;41.816;12.448;2022-12-07T05:00:11;10.00;;;4.32;;
69253;SDS011;56364;41.816;12.448;2022-12-07T05:02:37;14.07;;;5.35;;
69253;SDS011;56364;41.816;12.448;2022-12-07T05:07:29;9.20;;;4.35;;
69253;SDS011;56364;41.816;12.448;2022-12-07T05:09:55;11.55;;;4.20;;
69253;SDS011;56364;41.816;12.448;2022-12-07T05:12:21;10.32;;;4.38;;
69253;SDS011;56364;41.816;12.448;2022-12-07T05:14:47;10.80;;;4.93;;
69253;SDS011;56364;41.816;12.448;2022-12-07T05:19:39;12.07;;;4.38;;
69253;SDS011;56364;41.816;12.448;2022-12-07T05:22:05;12.93;;;5.00;;
69253;SDS011;56364;41.816;12.448;2022-12-07T05:26:57;9.88;;;3.80;;
69253;SDS011;56364;41.816;12.448;2022-12-07T05:31:49;12.35;;;4.35;;
69253;SDS011;56364;41.816;12.448;2022-12-07T05:36:41;9.38;;;3.83;;
69253;SDS011;56364;41.816;12.448;2022-12-07T05:41:33;11.02;;;3.88;;
69253;SDS011;56364;41.816;12.448;2022-12-07T05:44:17;8.85;;;3.92;;
69253;SDS011;56364;41.816;12.448;2022-12-07T05:49:09;9.77;;;3.67;;
69253;SDS011;56364;41.816;12.448;2022-12-07T05:51:35;7.97;;;4.25;;
69253;SDS011;56364;41.816;12.448;2022-12-07T05:56:27;10.52;;;3.72;;
69253;SDS011;56364;41.816;12.448;2022-12-07T05:58:54;10.30;;;3.85;;
69253;SDS011;56364;41.816;12.448;2022-12-07T06:01:38;11.07;;;3.83;;
69253;SDS011;56364;41.816;12.448;2022-12-07T06:04:05;15.00;;;4.30;;
69253;SDS011;56364;41.816;12.448;2022-12-07T06:06:31;10.75;;;4.15;;
69253;SDS011;56364;41.816;12.448;2022-12-07T06:11:23;8.68;;;3.55;;
69253;SDS011;56364;41.816;12.448;2022-12-07T06:14:07;7.65;;;3.65;;
69253;SDS011;56364;41.816;12.448;2022-12-07T06:16:33;9.95;;;3.72;;
69253;SDS011;56364;41.816;12.448;2022-12-07T06:19:00;7.40;;;3.63;;
69253;SDS011;56364;41.816;12.448;2022-12-07T06:21:26;9.18;;;3.63;;
69253;SDS011;56364;41.816;12.448;2022-12-07T06:23:52;11.40;;;4.35;;
69253;SDS011;56364;41.816;12.448;2022-12-07T06:26:18;11.00;;;4.30;;
69253;SDS011;56364;41.816;12.448;2022-12-07T06:28:44;18.80;;;4.30;;
69253;SDS011;56364;41.816;12.448;2022-12-07T06:33:36;9.88;;;3.35;;
69253;SDS011;56364;41.816;12.448;2022-12-07T06:38:28;10.02;;;3.78;;
69253;SDS011;56364;41.816;12.448;2022-12-07T06:43:20;13.27;;;4.20;;
69253;SDS011;56364;41.816;12.448;2022-12-07T06:48:12;12.70;;;3.83;;
69253;SDS011;56364;41.816;12.448;2022-12-07T06:50:39;12.27;;;4.70;;
69253;SDS011;56364;41.816;12.448;2022-12-07T06:53:05;11.10;;;3.78;;
69253;SDS011;56364;41.816;12.448;2022-12-07T06:55:31;12.15;;;4.20;;
69253;SDS011;56364;41.816;12.448;2022-12-07T07:00:23;30.58;;;4.53;;
69253;SDS011;56364;41.816;12.448;2022-12-07T07:05:15;24.80;;;4.93;;
69253;SDS011;56364;41.816;12.448;2022-12-07T07:07:41;9.85;;;3.90;;
69253;SDS011;56364;41.816;12.448;2022-12-07T07:10:07;8.30;;;3.20;;
69253;SDS011;56364;41.816;12.448;2022-12-07T07:12:33;11.30;;;3.90;;
69253;SDS011;56364;41.816;12.448;2022-12-07T07:17:25;12.15;;;4.05;;
69253;SDS011;56364;41.816;12.448;2022-12-07T07:19:51;11.13;;;3.75;;
69253;SDS011;56364;41.816;12.448;2022-12-07T07:24:43;7.90;;;3.33;;
69253;SDS011;56364;41.816;12.448;2022-12-07T07:29:36;17.52;;;4.45;;
69253;SDS011;56364;41.816;12.448;2022-12-07T07:32:02;11.48;;;4.13;;
69253;SDS011;56364;41.816;12.448;2022-12-07T07:36:54;8.98;;;3.88;;
69253;SDS011;56364;41.816;12.448;2022-12-07T07:41:46;11.75;;;3.65;;
69253;SDS011;56364;41.816;12.448;2022-12-07T07:46:38;10.98;;;4.55;;
69253;SDS011;56364;41.816;12.448;2022-12-07T07:51:29;8.60;;;3.58;;
69253;SDS011;56364;41.816;12.448;2022-12-07T07:56:21;14.32;;;3.85;;
69253;SDS011;56364;41.816;12.448;2022-12-07T07:58:51;11.10;;;4.55;;
69253;SDS011;56364;41.816;12.448;2022-12-07T08:01:17;14.90;;;3.83;;
69253;SDS011;56364;41.816;12.448;2022-12-07T08:03:44;13.60;;;4.05;;
69253;SDS011;56364;41.816;12.448;2022-12-07T08:06:10;11.00;;;4.82;;
69253;SDS011;56364;41.816;12.448;2022-12-07T08:08:36;11.43;;;4.47;;
69253;SDS011;56364;41.816;12.448;2022-12-07T08:13:28;10.32;;;3.90;;
69253;SDS011;56364;41.816;12.448;2022-12-07T08:18:20;8.30;;;4.03;;
69253;SDS011;56364;41.816;12.448;2022-12-07T08:23:12;14.68;;;3.70;;
69253;SDS011;56364;41.816;12.448;2022-12-07T08:25:38;11.52;;;3.95;;
69253;SDS011;56364;41.816;12.448;2022-12-07T08:28:04;9.32;;;3.65;;
69253;SDS011;56364;41.816;12.448;2022-12-07T08:30:31;12.68;;;4.60;;
69253;SDS011;56364;41.816;12.448;2022-12-07T08:32:57;11.35;;;4.68;;
69253;SDS011;56364;41.816;12.448;2022-12-07T08:37:49;10.20;;;4.25;;
69253;SDS011;56364;41.816;12.448;2022-12-07T08:40:15;10.82;;;4.40;;
69253;SDS011;56364;41.816;12.448;2022-12-07T08:42:43;14.05;;;4.22;;
69253;SDS011;56364;41.816;12.448;2022-12-07T08:45:11;16.02;;;4.22;;
69253;SDS011;56364;41.816;12.448;2022-12-07T08:47:38;13.10;;;4.13;;
69253;SDS011;56364;41.816;12.448;2022-12-07T08:50:05;15.50;;;3.97;;
69253;SDS011;56364;41.816;12.448;2022-12-07T08:52:33;8.70;;;3.55;;
69253;SDS011;56364;41.816;12.448;2022-12-07T08:54:59;7.82;;;3.95;;
69253;SDS011;56364;41.816;12.448;2022-12-07T08:57:26;14.80;;;4.50;;
69253;SDS011;56364;41.816;12.448;2022-12-07T08:59:53;11.18;;;3.95;;
69253;SDS011;56364;41.816;12.448;2022-12-07T09:02:19;10.32;;;3.20;;
69253;SDS011;56364;41.816;12.448;2022-12-07T09:04:45;11.88;;;4.20;;
69253;SDS011;56364;41.816;12.448;2022-12-07T09:09:37;13.45;;;3.80;;
69253;SDS011;56364;41.816;12.448;2022-12-07T09:14:29;9.30;;;3.45;;
69253;SDS011;56364;41.816;12.448;2022-12-07T09:17:04;12.07;;;3.42;;
69253;SDS011;56364;41.816;12.448;2022-12-07T09:19:30;18.92;;;3.60;;
69253;SDS011;56364;41.816;12.448;2022-12-07T09:21:56;9.25;;;3.50;;
69253;SDS011;56364;41.816;12.448;2022-12-07T09:26:48;9.80;;;3.50;;
69253;SDS011;56364;41.816;12.448;2022-12-07T09:29:14;12.13;;;3.83;;
69253;SDS011;56364;41.816;12.448;2022-12-07T09:31:40;8.13;;;3.05;;
69253;SDS011;56364;41.816;12.448;2022-12-07T09:36:33;10.05;;;3.13;;
69253;SDS011;56364;41.816;12.448;2022-12-07T09:38:59;8.50;;;3.10;;
69253;SDS011;56364;41.816;12.448;2022-12-07T09:43:51;11.02;;;3.35;;
69253;SDS011;56364;41.816;12.448;2022-12-07T09:46:18;11.15;;;4.05;;
69253;SDS011;56364;41.816;12.448;2022-12-07T09:48:45;9.85;;;3.38;;
69253;SDS011;56364;41.816;12.448;2022-12-07T09:51:18;8.75;;;3.20;;
69253;SDS011;56364;41.816;12.448;2022-12-07T09:53:45;11.75;;;4.07;;
69253;SDS011;56364;41.816;12.448;2022-12-07T09:56:13;9.15;;;3.30;;
69253;SDS011;56364;41.816;12.448;2022-12-07T09:58:40;10.13;;;3.65;;
69253;SDS011;56364;41.816;12.448;2022-12-07T10:03:36;12.23;;;4.28;;
69253;SDS011;56364;41.816;12.448;2022-12-07T10:06:03;8.35;;;3.17;;
69253;SDS011;56364;41.816;12.448;2022-12-07T10:08:30;8.70;;;3.78;;
69253;SDS011;56364;41.816;12.448;2022-12-07T10:10:56;10.18;;;3.72;;
69253;SDS011;56364;41.816;12.448;2022-12-07T10:13:36;10.10;;;3.50;;
69253;SDS011;56364;41.816;12.448;2022-12-07T10:16:03;8.13;;;3.65;;
69253;SDS011;56364;41.816;12.448;2022-12-07T10:18:38;8.88;;;3.58;;
69253;SDS011;56364;41.816;12.448;2022-12-07T10:21:19;11.27;;;3.63;;
69253;SDS011;56364;41.816;12.448;2022-12-07T10:26:34;8.10;;;3.72;;
69253;SDS011;56364;41.816;12.448;2022-12-07T10:29:22;9.35;;;3.47;;
69253;SDS011;56364;41.816;12.448;2022-12-07T10:31:50;9.10;;;3.10;;
69253;SDS011;56364;41.816;12.448;2022-12-07T10:34:26;7.97;;;3.28;;
69253;SDS011;56364;41.816;12.448;2022-12-07T10:36:54;8.65;;;3.55;;
69253;SDS011;56364;41.816;12.448;2022-12-07T10:39:32;9.07;;;3.22;;
69253;SDS011;56364;41.816;12.448;2022-12-07T10:42:09;11.82;;;3.90;;
69253;SDS011;56364;41.816;12.448;2022-12-07T10:44:41;9.30;;;3.53;;
69253;SDS011;56364;41.816;12.448;2022-12-07T10:52:26;11.50;;;3.75;;
69253;SDS011;56364;41.816;12.448;2022-12-07T11:00:17;11.98;;;3.40;;
69253;SDS011;56364;41.816;12.448;2022-12-07T11:05:19;7.72;;;3.35;;
69253;SDS011;56364;41.816;12.448;2022-12-07T11:18:44;13.77;;;3.13;;
69253;SDS011;56364;41.816;12.448;2022-12-07T11:27:01;12.32;;;3.30;;
69253;SDS011;56364;41.816;12.448;2022-12-07T11:29:49;9.45;;;3.45;;
69253;SDS011;56364;41.816;12.448;2022-12-07T11:35:08;8.20;;;3.00;;
69253;SDS011;56364;41.816;12.448;2022-12-07T11:37:37;7.88;;;2.75;;
69253;SDS011;56364;41.816;12.448;2022-12-07T11:42:46;9.35;;;3.35;;
69253;SDS011;56364;41.816;12.448;2022-12-07T11:45:28;13.48;;;3.15;;
69253;SDS011;56364;41.816;12.448;2022-12-07T11:50:54;11.98;;;4.22;;
69253;SDS011;56364;41.816;12.448;2022-12-07T11:56:06;15.52;;;3.03;;
69253;SDS011;56364;41.816;12.448;2022-12-07T12:03:33;8.43;;;3.28;;
69253;SDS011;56364;41.816;12.448;2022-12-07T12:05:59;7.65;;;3.25;;
69253;SDS011;56364;41.816;12.448;2022-12-07T12:08:33;8.27;;;3.13;;
69253;SDS011;56364;41.816;12.448;2022-12-07T12:16:34;7.57;;;3.10;;
69253;SDS011;56364;41.816;12.448;2022-12-07T12:19:25;9.00;;;2.97;;
69253;SDS011;56364;41.816;12.448;2022-12-07T12:21:53;6.30;;;3.03;;
69253;SDS011;56364;41.816;12.448;2022-12-07T12:24:22;8.07;;;2.92;;
69253;SDS011;56364;41.816;12.448;2022-12-07T12:26:50;10.60;;;3.53;;
69253;SDS011;56364;41.816;12.448;2022-12-07T12:32:19;8.18;;;3.35;;
69253;SDS011;56364;41.816;12.448;2022-12-07T12:42:44;8.85;;;2.88;;
69253;SDS011;56364;41.816;12.448;2022-12-07T12:50:16;6.70;;;3.13;;
69253;SDS011;56364;41.816;12.448;2022-12-07T12:57:36;7.00;;;3.05;;
69253;SDS011;56364;41.816;12.448;2022-12-07T13:00:14;7.28;;;2.40;;
69253;SDS011;56364;41.816;12.448;2022-12-07T13:02:52;5.95;;;2.90;;
69253;SDS011;56364;41.816;12.448;2022-12-07T13:05:20;9.32;;;3.35;;
69253;SDS011;56364;41.816;12.448;2022-12-07T13:15:48;14.43;;;3.08;;
69253;SDS011;56364;41.816;12.448;2022-12-07T13:29:05;7.82;;;2.50;;
69253;SDS011;56364;41.816;12.448;2022-12-07T13:34:01;11.30;;;3.38;;
69253;SDS011;56364;41.816;12.448;2022-12-07T13:36:32;11.43;;;2.95;;
69253;SDS011;56364;41.816;12.448;2022-12-07T13:39:10;15.13;;;2.75;;
69253;SDS011;56364;41.816;12.448;2022-12-07T13:41:37;7.65;;;2.42;;
69253;SDS011;56364;41.816;12.448;2022-12-07T13:44:14;9.32;;;2.72;;
69253;SDS011;56364;41.816;12.448;2022-12-07T13:49:17;10.02;;;3.10;;
69253;SDS011;56364;41.816;12.448;2022-12-07T13:51:44;7.47;;;2.92;;
69253;SDS011;56364;41.816;12.448;2022-12-07T13:56:36;10.15;;;2.60;;
69253;SDS011;56364;41.816;12.448;2022-12-07T13:59:04;6.30;;;2.70;;
69253;SDS011;56364;41.816;12.448;2022-12-07T14:01:31;10.48;;;2.83;;
69253;SDS011;56364;41.816;12.448;2022-12-07T14:04:16;11.77;;;3.05;;
69253;SDS011;56364;41.816;12.448;2022-12-07T14:06:51;8.60;;;2.75;;
69253;SDS011;56364;41.816;12.448;2022-12-07T14:09:26;13.93;;;2.97;;
69253;SDS011;56364;41.816;12.448;2022-12-07T14:11:55;8.85;;;2.45;;
69253;SDS011;56364;41.816;12.448;2022-12-07T14:14:22;10.05;;;2.50;;
69253;SDS011;56364;41.816;12.448;2022-12-07T14:16:56;12.63;;;2.65;;
69253;SDS011;56364;41.816;12.448;2022-12-07T14:19:44;9.40;;;2.67;;
69253;SDS011;56364;41.816;12.448;2022-12-07T14:22:09;13.88;;;2.72;;
69253;SDS011;56364;41.816;12.448;2022-12-07T14:24:43;14.10;;;2.72;;
69253;SDS011;56364;41.816;12.448;2022-12-07T14:27:46;11.07;;;2.65;;
69253;SDS011;56364;41.816;12.448;2022-12-07T14:30:03;10.80;;;2.53;;
69253;SDS011;56364;41.816;12.448;2022-12-07T14:32:30;15.52;;;3.17;;
69253;SDS011;56364;41.816;12.448;2022-12-07T14:35:01;12.90;;;2.95;;
69253;SDS011;56364;41.816;12.448;2022-12-07T14:37:27;17.42;;;3.22;;
69253;SDS011;56364;41.816;12.448;2022-12-07T14:39:54;10.00;;;3.13;;
69253;SDS011;56364;41.816;12.448;2022-12-07T14:42:20;13.82;;;2.90;;
69253;SDS011;56364;41.816;12.448;2022-12-07T14:44:47;10.05;;;2.58;;
69253;SDS011;56364;41.816;12.448;2022-12-07T14:49:39;6.63;;;2.50;;
69253;SDS011;56364;41.816;12.448;2022-12-07T14:52:05;14.02;;;3.28;;
69253;SDS011;56364;41.816;12.448;2022-12-07T14:54:34;11.10;;;3.28;;
69253;SDS011;56364;41.816;12.448;2022-12-07T14:59:26;7.47;;;3.22;;
69253;SDS011;56364;41.816;12.448;2022-12-07T15:04:18;23.83;;;3.33;;
69253;SDS011;56364;41.816;12.448;2022-12-07T15:09:11;21.42;;;2.97;;
69253;SDS011;56364;41.816;12.448;2022-12-07T15:14:03;30.05;;;3.67;;
69253;SDS011;56364;41.816;12.448;2022-12-07T15:16:39;14.18;;;3.28;;
69253;SDS011;56364;41.816;12.448;2022-12-07T15:19:07;16.23;;;3.33;;
69253;SDS011;56364;41.816;12.448;2022-12-07T15:21:36;17.50;;;3.63;;
69253;SDS011;56364;41.816;12.448;2022-12-07T15:26:28;10.13;;;4.07;;
69253;SDS011;56364;41.816;12.448;2022-12-07T15:28:54;12.40;;;3.42;;
69253;SDS011;56364;41.816;12.448;2022-12-07T15:31:20;15.05;;;3.75;;
69253;SDS011;56364;41.816;12.448;2022-12-07T15:36:19;12.35;;;3.92;;
69253;SDS011;56364;41.816;12.448;2022-12-07T15:38:46;24.88;;;3.67;;
69253;SDS011;56364;41.816;12.448;2022-12-07T15:41:12;18.65;;;4.72;;
69253;SDS011;56364;41.816;12.448;2022-12-07T15:46:23;14.52;;;3.97;;
69253;SDS011;56364;41.816;12.448;2022-12-07T15:51:15;14.98;;;4.18;;
69253;SDS011;56364;41.816;12.448;2022-12-07T15:56:07;16.13;;;4.20;;
69253;SDS011;56364;41.816;12.448;2022-12-07T15:58:33;18.48;;;4.80;;
69253;SDS011;56364;41.816;12.448;2022-12-07T16:00:59;14.93;;;4.03;;
69253;SDS011;56364;41.816;12.448;2022-12-07T16:05:52;11.20;;;4.18;;
69253;SDS011;56364;41.816;12.448;2022-12-07T16:08:18;13.93;;;4.95;;
69253;SDS011;56364;41.816;12.448;2022-12-07T16:13:10;13.35;;;4.70;;
69253;SDS011;56364;41.816;12.448;2022-12-07T16:15:40;11.55;;;4.70;;
69253;SDS011;56364;41.816;12.448;2022-12-07T16:18:06;17.42;;;4.55;;
69253;SDS011;56364;41.816;12.448;2022-12-07T16:20:32;18.42;;;4.45;;
69253;SDS011;56364;41.816;12.448;2022-12-07T16:22:58;21.25;;;4.63;;
69253;SDS011;56364;41.816;12.448;2022-12-07T16:25:24;20.58;;;4.20;;
69253;SDS011;56364;41.816;12.448;2022-12-07T16:30:16;17.58;;;4.40;;
69253;SDS011;56364;41.816;12.448;2022-12-07T16:35:09;20.77;;;4.55;;
69253;SDS011;56364;41.816;12.448;2022-12-07T16:37:35;9.98;;;3.80;;
69253;SDS011;56364;41.816;12.448;2022-12-07T16:42:28;10.32;;;3.50;;
69253;SDS011;56364;41.816;12.448;2022-12-07T16:44:56;17.25;;;3.90;;
69253;SDS011;56364;41.816;12.448;2022-12-07T16:49:48;8.75;;;3.58;;
69253;SDS011;56364;41.816;12.448;2022-12-07T16:52:15;11.38;;;3.78;;
69253;SDS011;56364;41.816;12.448;2022-12-07T16:57:07;10.52;;;3.72;;
69253;SDS011;56364;41.816;12.448;2022-12-07T17:01:59;9.38;;;4.00;;
69253;SDS011;56364;41.816;12.448;2022-12-07T17:06:51;16.08;;;3.90;;
69253;SDS011;56364;41.816;12.448;2022-12-07T17:11:44;12.63;;;3.38;;
69253;SDS011;56364;41.816;12.448;2022-12-07T17:14:10;10.25;;;3.75;;
69253;SDS011;56364;41.816;12.448;2022-12-07T17:16:55;9.63;;;4.18;;
69253;SDS011;56364;41.816;12.448;2022-12-07T17:21:47;12.73;;;3.90;;
69253;SDS011;56364;41.816;12.448;2022-12-07T17:26:39;9.98;;;3.42;;
69253;SDS011;56364;41.816;12.448;2022-12-07T17:29:05;16.05;;;4.13;;
69253;SDS011;56364;41.816;12.448;2022-12-07T17:31:33;13.13;;;3.97;;
69253;SDS011;56364;41.816;12.448;2022-12-07T17:33:59;14.20;;;3.60;;
69253;SDS011;56364;41.816;12.448;2022-12-07T17:36:26;12.48;;;3.70;;
69253;SDS011;56364;41.816;12.448;2022-12-07T17:38:53;10.32;;;3.90;;
69253;SDS011;56364;41.816;12.448;2022-12-07T17:44:04;11.63;;;3.13;;
69253;SDS011;56364;41.816;12.448;2022-12-07T17:46:31;11.52;;;3.92;;
69253;SDS011;56364;41.816;12.448;2022-12-07T17:48:57;8.68;;;3.60;;
69253;SDS011;56364;41.816;12.448;2022-12-07T17:51:23;11.88;;;3.47;;
69253;SDS011;56364;41.816;12.448;2022-12-07T17:54:08;10.43;;;3.25;;
69253;SDS011;56364;41.816;12.448;2022-12-07T17:56:35;13.50;;;3.60;;
69253;SDS011;56364;41.816;12.448;2022-12-07T17:59:01;10.48;;;3.28;;
69253;SDS011;56364;41.816;12.448;2022-12-07T18:01:27;10.93;;;3.78;;
69253;SDS011;56364;41.816;12.448;2022-12-07T18:03:53;10.07;;;3.10;;
69253;SDS011;56364;41.816;12.448;2022-12-07T18:08:45;9.48;;;3.10;;
69253;SDS011;56364;41.816;12.448;2022-12-07T18:13:37;9.77;;;2.90;;
69253;SDS011;56364;41.816;12.448;2022-12-07T18:16:04;12.57;;;3.70;;
69253;SDS011;56364;41.816;12.448;2022-12-07T18:18:31;9.32;;;3.00;;
69253;SDS011;56364;41.816;12.448;2022-12-07T18:20:57;9.10;;;3.22;;
69253;SDS011;56364;41.816;12.448;2022-12-07T18:25:49;7.60;;;2.63;;
69253;SDS011;56364;41.816;12.448;2022-12-07T18:28:16;8.52;;;2.80;;
69253;SDS011;56364;41.816;12.448;2022-12-07T18:30:42;13.02;;;3.20;;
69253;SDS011;56364;41.816;12.448;2022-12-07T18:33:18;11.48;;;3.13;;
69253;SDS011;56364;41.816;12.448;2022-12-07T18:35:44;11.00;;;3.30;;
69253;SDS011;56364;41.816;12.448;2022-12-07T18:38:11;9.32;;;2.63;;
69253;SDS011;56364;41.816;12.448;2022-12-07T18:40:38;9.05;;;2.75;;
69253;SDS011;56364;41.816;12.448;2022-12-07T18:43:04;9.63;;;2.85;;
69253;SDS011;56364;41.816;12.448;2022-12-07T18:45:33;9.55;;;2.97;;
69253;SDS011;56364;41.816;12.448;2022-12-07T18:47:59;9.68;;;2.67;;
69253;SDS011;56364;41.816;12.448;2022-12-07T18:52:51;5.82;;;2.40;;
69253;SDS011;56364;41.816;12.448;2022-12-07T18:55:17;7.82;;;2.97;;
69253;SDS011;56364;41.816;12.448;2022-12-07T18:57:43;10.57;;;3.00;;
69253;SDS011;56364;41.816;12.448;2022-12-07T19:00:10;7.28;;;2.67;;
69253;SDS011;56364;41.816;12.448;2022-12-07T19:02:36;6.43;;;3.03;;
69253;SDS011;56364;41.816;12.448;2022-12-07T19:05:02;11.43;;;2.90;;
69253;SDS011;56364;41.816;12.448;2022-12-07T19:07:28;5.60;;;2.70;;
69253;SDS011;56364;41.816;12.448;2022-12-07T19:12:20;7.72;;;2.70;;
69253;SDS011;56364;41.816;12.448;2022-12-07T19:17:12;5.95;;;2.97;;
69253;SDS011;56364;41.816;12.448;2022-12-07T19:19:39;5.93;;;2.80;;
69253;SDS011;56364;41.816;12.448;2022-12-07T19:22:06;8.20;;;2.85;;
69253;SDS011;56364;41.816;12.448;2022-12-07T19:24:33;7.85;;;2.55;;
69253;SDS011;56364;41.816;12.448;2022-12-07T19:26:59;7.70;;;3.17;;
69253;SDS011;56364;41.816;12.448;2022-12-07T19:29:27;10.45;;;2.67;;
69253;SDS011;56364;41.816;12.448;2022-12-07T19:31:55;5.90;;;2.60;;
69253;SDS011;56364;41.816;12.448;2022-12-07T19:34:21;8.75;;;2.50;;
69253;SDS011;56364;41.816;12.448;2022-12-07T19:36:47;10.07;;;2.88;;
69253;SDS011;56364;41.816;12.448;2022-12-07T19:39:13;6.38;;;3.30;;
69253;SDS011;56364;41.816;12.448;2022-12-07T19:44:14;8.27;;;2.50;;
69253;SDS011;56364;41.816;12.448;2022-12-07T19:46:41;5.05;;;2.45;;
69253;SDS011;56364;41.816;12.448;2022-12-07T19:49:08;15.63;;;2.72;;
69253;SDS011;56364;41.816;12.448;2022-12-07T19:51:34;7.63;;;2.53;;
69253;SDS011;56364;41.816;12.448;2022-12-07T19:54:00;10.00;;;2.92;;